VMMC/MFM METAR and TAF weather

Enter ICAO airport designator
Station Type Date Time Source
VMMC METAR 2020/07/09 08:30 UTC NOAA

VMMC 090830Z 20012KT 9999 FEW015 SCT025 30/27 Q1002 NOSIG


Station Type Date Time Source
VMMC Decoded METAR 2020/07/09 08:30 UTC NOAA

Taipa, Macau (VMMC) 22-10N 113-34E
Jul 09, 2020 - 04:30 AM EDT / 2020.07.09 0830 UTC
Wind: from the SSW (200 degrees) at 14 MPH (12 KT):0
Visibility: greater than 7 mile(s):0
Sky conditions: partly cloudy
Temperature: 86 F (30 C)
Heat index: 101.8 F (38.8 C):1
Dew Point: 80 F (27 C)
Relative Humidity: 84%
Pressure (altimeter): 29.59 in. Hg (1002 hPa)
ob: VMMC 090830Z 20012KT 9999 FEW015 SCT025 30/27 Q1002 NOSIG
cycle: 8

Station Type Date Time Source
VMMC TAF 2020/07/09 06:21 UTC NOAA

TAF VMMC 090502Z 0906/1012 21015KT 9999 FEW015 SCT030
TEMPO 0906/0912 21018G28KT
TEMPO 0916/0919 21018G28KT

Example: see airport list